Terminal Aerodrome Forecast
Issued by NWS

Home | Current Version | Previous Version | Text Only | Print | Product List | Glossary On
Versions: 1 2 3 4 5 6 7 8 9 10 11 12 13 14
647
FTUS44 KBMX 231727
TAFEET
TAF
KEET 231727Z 2318/2418 16010G15KT P6SM FEW050
     FM240000 12006KT P6SM BKN040
     FM241000 14006KT P6SM BKN025
     FM241400 14009KT P6SM BKN040=

USA.gov is the U.S. government's official web portal to all federal, state and local government web resources and services.